createdAt,value
2023-10-03T00:00:00.795Z,80.12
2023-10-03T00:02:32.763Z,80.92
2023-10-03T00:05:04.600Z,80.93
2023-10-03T00:07:36.403Z,80.98
2023-10-03T00:10:07.915Z,80.96
2023-10-03T00:12:39.944Z,81.18
2023-10-03T00:15:11.478Z,81.84
2023-10-03T00:17:43.453Z,83.04
2023-10-03T00:20:15.060Z,83.91
2023-10-03T00:22:46.598Z,83.86
2023-10-03T00:25:18.118Z,83.57
2023-10-03T00:27:49.612Z,83.73
2023-10-03T00:30:21.122Z,84.49
2023-10-03T00:32:53.082Z,84.96
2023-10-03T00:35:24.838Z,84.64
2023-10-03T00:37:56.337Z,85.07
2023-10-03T00:40:27.869Z,85.46
2023-10-03T00:42:59.437Z,85.37
2023-10-03T00:45:31.350Z,85.48
2023-10-03T00:48:02.917Z,85.51
2023-10-03T00:50:35.036Z,85.42
2023-10-03T00:53:06.550Z,85.06
2023-10-03T00:55:38.562Z,84.89
2023-10-03T00:58:10.048Z,84.57
2023-10-03T01:00:41.645Z,84.15
2023-10-03T01:03:13.599Z,83.41
2023-10-03T01:05:45.250Z,83.33
2023-10-03T01:08:17.131Z,83.37
2023-10-03T01:10:48.637Z,83.19
2023-10-03T01:13:20.669Z,83.11
2023-10-03T01:15:52.149Z,82.69
2023-10-03T01:18:24.220Z,82.31
2023-10-03T01:20:55.931Z,82.78
2023-10-03T01:23:27.880Z,81.77
2023-10-03T01:25:59.406Z,82.01
2023-10-03T01:28:31.240Z,81.96
2023-10-03T01:31:02.818Z,81.74
2023-10-03T01:33:34.497Z,81.95
2023-10-03T01:36:06.332Z,81.46
2023-10-03T01:38:38.188Z,80.96
2023-10-03T01:41:09.723Z,80.78
2023-10-03T01:43:41.216Z,81.06
2023-10-03T01:46:13.207Z,80.99
2023-10-03T01:48:44.731Z,80.30
2023-10-03T01:51:16.559Z,80.53
2023-10-03T01:53:48.106Z,81.05
2023-10-03T01:56:19.911Z,80.97
2023-10-03T01:58:51.442Z,81.53
2023-10-03T02:01:23.467Z,81.60
2023-10-03T02:03:55.404Z,80.54
2023-10-03T02:06:27.291Z,81.56
2023-10-03T02:08:59.222Z,82.77
2023-10-03T02:11:30.896Z,82.94
2023-10-03T02:14:02.843Z,83.41
2023-10-03T02:16:34.371Z,83.84
2023-10-03T02:19:05.885Z,84.41
2023-10-03T02:21:37.379Z,84.08
2023-10-03T02:24:08.909Z,84.98
2023-10-03T02:26:40.477Z,84.92
2023-10-03T02:29:12.412Z,84.96
2023-10-03T02:31:43.942Z,85.09
2023-10-03T02:34:15.678Z,85.57
2023-10-03T02:36:47.164Z,85.71
2023-10-03T02:39:18.941Z,85.64
2023-10-03T02:41:50.482Z,86.46
2023-10-03T02:44:22.020Z,86.61
2023-10-03T02:46:53.841Z,86.58
2023-10-03T02:49:25.356Z,86.66
2023-10-03T02:51:58.354Z,86.66
2023-10-03T02:54:29.843Z,86.91
2023-10-03T02:57:01.660Z,86.85
2023-10-03T02:59:33.233Z,86.92
2023-10-03T03:02:04.941Z,87.80
2023-10-03T03:04:36.457Z,87.60
2023-10-03T03:07:08.212Z,87.91
2023-10-03T03:09:39.707Z,87.93
2023-10-03T03:12:11.537Z,88.72
2023-10-03T03:14:43.629Z,88.83
2023-10-03T03:17:15.388Z,88.80
2023-10-03T03:19:47.167Z,88.57
2023-10-03T03:22:18.666Z,88.96
2023-10-03T03:24:50.184Z,88.22
2023-10-03T03:27:21.707Z,88.01
2023-10-03T03:29:53.796Z,87.92
2023-10-03T03:32:25.420Z,87.70
2023-10-03T03:34:57.345Z,87.78
2023-10-03T03:37:28.827Z,87.70
2023-10-03T03:40:00.625Z,87.57
2023-10-03T03:42:32.548Z,87.53
2023-10-03T03:45:04.266Z,87.36
2023-10-03T03:47:36.163Z,87.34
2023-10-03T03:50:07.768Z,87.27
2023-10-03T03:52:39.484Z,87.12
2023-10-03T03:55:10.976Z,86.96
2023-10-03T03:57:42.725Z,86.48
2023-10-03T04:00:14.210Z,86.58
2023-10-03T04:02:45.878Z,86.54
2023-10-03T04:05:17.434Z,86.52
2023-10-03T04:07:48.941Z,86.31
2023-10-03T04:10:20.728Z,85.80
2023-10-03T04:12:52.253Z,85.80
2023-10-03T04:15:24.081Z,85.43
2023-10-03T04:17:55.652Z,85.60
2023-10-03T04:20:27.254Z,85.53
2023-10-03T04:22:58.749Z,85.48
2023-10-03T04:25:30.837Z,84.99
2023-10-03T04:28:02.322Z,84.81
2023-10-03T04:30:34.022Z,84.44
2023-10-03T04:33:05.565Z,84.38
2023-10-03T04:35:37.493Z,84.08
2023-10-03T04:38:09.024Z,84.35
2023-10-03T04:40:40.799Z,84.45
2023-10-03T04:43:12.652Z,83.69
2023-10-03T04:45:44.174Z,83.87
2023-10-03T04:48:16.110Z,83.52
2023-10-03T04:50:47.724Z,83.58
2023-10-03T04:53:19.394Z,83.42
2023-10-03T04:55:50.917Z,83.33
2023-10-03T04:58:22.713Z,82.90
2023-10-03T05:00:54.236Z,82.98
2023-10-03T05:03:26.596Z,82.35
2023-10-03T05:05:58.199Z,82.36
2023-10-03T05:08:30.170Z,81.94
2023-10-03T05:11:01.747Z,82.07
2023-10-03T05:13:33.630Z,81.33
2023-10-03T05:16:05.295Z,81.21
2023-10-03T05:18:37.385Z,81.19
2023-10-03T05:21:09.282Z,80.56
2023-10-03T05:23:40.850Z,80.34
2023-10-03T05:26:12.663Z,79.73
2023-10-03T05:28:44.166Z,79.31
2023-10-03T05:31:16.013Z,79.24
2023-10-03T05:33:47.555Z,78.82
2023-10-03T05:36:19.376Z,78.58
2023-10-03T05:38:50.903Z,78.38
2023-10-03T05:41:22.885Z,78.32
2023-10-03T05:43:55.753Z,77.79
2023-10-03T05:46:27.481Z,77.28
2023-10-03T05:48:58.978Z,77.18
2023-10-03T05:51:30.470Z,76.34
2023-10-03T05:54:02.508Z,76.17
2023-10-03T05:56:34.046Z,75.64
2023-10-03T05:59:05.587Z,75.48
2023-10-03T06:01:37.107Z,75.40
2023-10-03T06:04:08.873Z,75.09
2023-10-03T06:06:40.452Z,74.71
2023-10-03T06:09:12.281Z,74.99
2023-10-03T06:11:43.854Z,75.01
2023-10-03T06:14:15.691Z,75.01
2023-10-03T06:16:47.202Z,74.73
2023-10-03T06:19:18.703Z,74.92
2023-10-03T06:21:50.366Z,74.46
2023-10-03T06:24:21.900Z,74.45
2023-10-03T06:26:53.813Z,73.98
2023-10-03T06:29:25.387Z,73.47
2023-10-03T06:31:57.267Z,73.47
2023-10-03T06:34:28.820Z,73.48
2023-10-03T06:37:00.631Z,73.21
2023-10-03T06:39:32.134Z,72.73
2023-10-03T06:42:04.068Z,72.75
2023-10-03T06:44:35.661Z,72.41
2023-10-03T06:47:07.550Z,71.67
2023-10-03T06:49:39.082Z,72.21
2023-10-03T06:52:10.862Z,71.36
2023-10-03T06:54:42.681Z,70.66
2023-10-03T06:57:14.244Z,70.54
2023-10-03T06:59:45.900Z,70.18
2023-10-03T07:02:17.405Z,69.76
2023-10-03T07:04:48.948Z,69.42
2023-10-03T07:07:20.460Z,68.90
2023-10-03T07:09:52.461Z,68.17
2023-10-03T07:12:24.023Z,67.63
2023-10-03T07:14:55.678Z,67.48
2023-10-03T07:17:27.317Z,67.16
2023-10-03T07:19:58.871Z,66.93
2023-10-03T07:22:30.374Z,66.68
2023-10-03T07:25:01.883Z,66.11
2023-10-03T07:27:33.589Z,66.07
2023-10-03T07:30:05.149Z,65.85
2023-10-03T07:32:36.802Z,66.21
2023-10-03T07:35:08.339Z,64.91
2023-10-03T07:37:39.825Z,64.38
2023-10-03T07:40:11.339Z,63.94
2023-10-03T07:42:43.172Z,63.99
2023-10-03T07:45:14.678Z,63.00
2023-10-03T07:47:46.304Z,62.09
2023-10-03T07:50:17.883Z,61.16
2023-10-03T07:52:50.295Z,61.55
2023-10-03T07:55:23.686Z,60.62
2023-10-03T07:57:55.164Z,59.70
2023-10-03T08:00:26.662Z,59.85
2023-10-03T08:02:58.457Z,59.33
2023-10-03T08:05:30.224Z,58.49
2023-10-03T08:08:01.753Z,57.63
2023-10-03T08:10:33.264Z,56.46
2023-10-03T08:13:04.753Z,55.87
2023-10-03T08:15:36.552Z,54.67
2023-10-03T08:18:08.210Z,54.36
2023-10-03T08:20:39.807Z,52.80
2023-10-03T08:23:11.324Z,51.27
2023-10-03T08:25:45.081Z,51.18
2023-10-03T08:28:17.330Z,52.25
2023-10-03T08:30:48.882Z,52.16
2023-10-03T08:33:20.537Z,51.88
2023-10-03T08:35:52.093Z,50.75
2023-10-03T08:38:23.923Z,50.04
2023-10-03T08:40:55.410Z,50.48
2023-10-03T08:43:27.797Z,50.56
2023-10-03T08:45:59.553Z,51.78
2023-10-03T08:48:31.350Z,52.27
2023-10-03T08:51:03.096Z,52.31
2023-10-03T08:53:35.008Z,51.49
2023-10-03T08:56:06.777Z,51.77
2023-10-03T08:58:38.297Z,52.02
2023-10-03T09:01:10.224Z,50.69
2023-10-03T09:03:41.811Z,51.54
2023-10-03T09:06:13.760Z,51.79
2023-10-03T09:08:45.291Z,52.00
2023-10-03T09:11:17.154Z,51.98
2023-10-03T09:13:48.655Z,51.97
2023-10-03T09:16:20.513Z,52.17
2023-10-03T09:18:52.133Z,51.73
2023-10-03T09:21:24.136Z,52.95
2023-10-03T09:23:56.265Z,52.52
2023-10-03T09:26:27.790Z,51.98
2023-10-03T09:28:59.652Z,51.31
2023-10-03T09:31:31.220Z,50.42
2023-10-03T09:34:03.073Z,50.66
2023-10-03T09:36:34.553Z,51.04
2023-10-03T09:39:06.246Z,50.91
2023-10-03T09:41:37.793Z,49.72
2023-10-03T09:44:09.723Z,48.95
2023-10-03T09:46:41.219Z,49.26
2023-10-03T09:49:13.051Z,49.40
2023-10-03T09:51:44.545Z,49.14
2023-10-03T09:54:16.347Z,48.78
2023-10-03T09:56:47.872Z,48.20
2023-10-03T09:59:19.402Z,48.29
2023-10-03T10:01:50.959Z,48.60
2023-10-03T10:04:22.594Z,48.55
2023-10-03T10:06:54.588Z,48.39
2023-10-03T10:09:26.101Z,48.33
2023-10-03T10:11:58.033Z,47.76
2023-10-03T10:14:29.613Z,47.05
2023-10-03T10:17:01.686Z,47.26
2023-10-03T10:19:33.223Z,46.84
2023-10-03T10:22:05.058Z,45.86
2023-10-03T10:24:36.752Z,45.65
2023-10-03T10:27:08.628Z,45.14
2023-10-03T10:29:40.254Z,44.87
2023-10-03T10:32:11.804Z,43.99
2023-10-03T10:34:43.614Z,43.67
2023-10-03T10:37:15.118Z,43.82
2023-10-03T10:39:46.618Z,44.06
2023-10-03T10:42:18.125Z,43.88
2023-10-03T10:44:49.750Z,43.99
2023-10-03T10:47:21.246Z,43.32
2023-10-03T10:50:02.714Z,42.85
2023-10-03T10:52:44.664Z,43.41
2023-10-03T10:55:16.149Z,43.54
2023-10-03T10:57:47.631Z,43.88
2023-10-03T11:00:19.193Z,43.65
2023-10-03T11:02:50.801Z,43.96
2023-10-03T11:05:22.346Z,43.26
2023-10-03T11:07:54.192Z,44.03
2023-10-03T11:10:34.688Z,43.57
2023-10-03T11:13:07.609Z,43.88
2023-10-03T11:15:39.270Z,43.82
2023-10-03T11:18:11.235Z,43.68
2023-10-03T11:20:43.153Z,43.19
2023-10-03T11:23:14.661Z,43.73
2023-10-03T11:25:46.173Z,43.36
2023-10-03T11:28:17.714Z,42.83
2023-10-03T11:30:49.591Z,43.28
2023-10-03T11:33:21.521Z,43.11
2023-10-03T11:35:53.170Z,43.32
2023-10-03T11:38:25.016Z,44.24
2023-10-03T11:40:56.507Z,45.30
2023-10-03T11:43:28.318Z,45.77
2023-10-03T11:45:59.974Z,45.70
2023-10-03T11:48:31.947Z,45.27
2023-10-03T11:51:03.565Z,45.52
2023-10-03T11:53:35.414Z,45.44
2023-10-03T11:56:06.914Z,46.05
2023-10-03T11:58:38.772Z,45.40
2023-10-03T12:01:10.305Z,45.98
2023-10-03T12:03:42.199Z,46.38
2023-10-03T12:06:13.873Z,46.19
2023-10-03T12:08:45.463Z,46.14
2023-10-03T12:11:17.033Z,46.01
2023-10-03T12:13:48.791Z,46.07
2023-10-03T12:16:20.291Z,46.32
2023-10-03T12:18:52.157Z,46.79
2023-10-03T12:21:23.771Z,47.71
2023-10-03T12:23:55.652Z,47.71
2023-10-03T12:26:28.174Z,48.20
2023-10-03T12:29:00.190Z,47.71
2023-10-03T12:31:31.734Z,46.92
2023-10-03T12:34:03.586Z,46.69
2023-10-03T12:36:35.102Z,47.03
2023-10-03T12:39:07.133Z,47.27
2023-10-03T12:41:38.747Z,46.57
2023-10-03T12:44:10.641Z,47.45
2023-10-03T12:46:42.173Z,47.73
2023-10-03T12:49:13.987Z,48.30
2023-10-03T12:51:45.520Z,49.43
2023-10-03T12:54:17.324Z,50.27
2023-10-03T12:56:48.887Z,50.58
2023-10-03T12:59:20.853Z,50.71
2023-10-03T13:01:52.359Z,50.90
2023-10-03T13:04:24.158Z,51.12
2023-10-03T13:06:55.709Z,51.52
2023-10-03T13:09:27.518Z,51.44
2023-10-03T13:11:59.086Z,50.90
2023-10-03T13:14:30.877Z,50.79
2023-10-03T13:17:02.364Z,50.77
2023-10-03T13:19:34.102Z,50.87
2023-10-03T13:22:05.599Z,50.93
2023-10-03T13:24:37.554Z,51.37
2023-10-03T13:27:09.323Z,50.83
2023-10-03T13:29:41.200Z,50.48
2023-10-03T13:32:12.726Z,50.85
2023-10-03T13:34:44.270Z,50.87
2023-10-03T13:37:15.791Z,51.44
2023-10-03T13:39:47.457Z,51.59
2023-10-03T13:42:19.010Z,51.26
2023-10-03T13:44:50.744Z,51.36
2023-10-03T13:47:22.259Z,51.52
2023-10-03T13:49:53.929Z,51.88
2023-10-03T13:52:25.435Z,52.02
2023-10-03T13:54:57.142Z,52.25
2023-10-03T13:57:28.644Z,51.90
2023-10-03T14:00:00.334Z,52.47
2023-10-03T14:02:31.909Z,52.75
2023-10-03T14:05:03.590Z,53.07
2023-10-03T14:07:35.088Z,53.29
2023-10-03T14:10:06.785Z,53.92
2023-10-03T14:12:38.404Z,54.22
2023-10-03T14:15:10.165Z,53.79
2023-10-03T14:17:41.831Z,54.12
2023-10-03T14:20:13.864Z,53.73
2023-10-03T14:22:45.461Z,53.77
2023-10-03T14:25:17.249Z,53.55
2023-10-03T14:27:48.797Z,53.23
2023-10-03T14:30:20.648Z,54.67
2023-10-03T14:32:52.361Z,55.00
2023-10-03T14:35:24.166Z,54.82
2023-10-03T14:37:55.672Z,57.36
2023-10-03T14:40:27.228Z,57.78
2023-10-03T14:42:58.735Z,57.42
2023-10-03T14:45:30.452Z,57.22
2023-10-03T14:48:02.039Z,57.15
2023-10-03T14:50:33.642Z,56.84
2023-10-03T14:53:05.212Z,56.99
2023-10-03T14:55:37.056Z,56.51
2023-10-03T14:58:08.570Z,56.86
2023-10-03T15:00:40.357Z,55.97
2023-10-03T15:03:11.961Z,54.79
2023-10-03T15:05:43.921Z,54.29
2023-10-03T15:08:15.435Z,54.38
2023-10-03T15:10:46.974Z,54.24
2023-10-03T15:13:18.509Z,54.34
2023-10-03T15:15:50.293Z,54.45
2023-10-03T15:18:21.887Z,54.49
2023-10-03T15:20:53.987Z,54.50
2023-10-03T15:23:25.498Z,54.11
2023-10-03T15:25:57.298Z,54.17
2023-10-03T15:28:28.798Z,54.43
2023-10-03T15:31:00.585Z,54.46
2023-10-03T15:33:32.228Z,54.48
2023-10-03T15:36:04.111Z,54.60
2023-10-03T15:38:35.616Z,54.48
2023-10-03T15:41:07.641Z,54.77
2023-10-03T15:43:39.150Z,55.02
2023-10-03T15:46:10.931Z,55.04
2023-10-03T15:48:42.576Z,55.28
2023-10-03T15:51:14.455Z,55.47
2023-10-03T15:53:46.935Z,55.48
2023-10-03T15:56:18.927Z,55.98
2023-10-03T15:58:50.424Z,55.96
2023-10-03T16:01:22.184Z,60.41
2023-10-03T16:03:53.832Z,71.70
2023-10-03T16:06:25.905Z,73.02
2023-10-03T16:08:57.441Z,80.74
2023-10-03T16:11:29.347Z,88.46
2023-10-03T16:14:00.913Z,92.03
2023-10-03T16:16:32.958Z,94.00
2023-10-03T16:19:04.648Z,96.53
2023-10-03T16:21:36.682Z,97.97
2023-10-03T16:24:08.246Z,98.94
2023-10-03T16:26:40.140Z,100.00
2023-10-03T16:29:11.650Z,100.00
2023-10-03T16:31:43.500Z,100.00
2023-10-03T16:34:15.024Z,100.00
2023-10-03T16:36:46.561Z,100.00
2023-10-03T16:39:18.140Z,100.00
2023-10-03T16:41:49.815Z,100.00
2023-10-03T16:44:21.388Z,100.00
2023-10-03T16:46:53.111Z,100.00
2023-10-03T16:49:24.678Z,100.00
2023-10-03T16:51:56.799Z,100.00
2023-10-03T16:54:28.319Z,100.00
2023-10-03T16:57:00.230Z,100.00
2023-10-03T16:59:31.763Z,100.00
2023-10-03T17:02:03.782Z,100.00
2023-10-03T17:04:35.300Z,100.00
2023-10-03T17:07:07.010Z,100.00
2023-10-03T17:09:38.545Z,100.00
2023-10-03T17:12:10.416Z,100.00
2023-10-03T17:14:41.954Z,100.00
2023-10-03T17:17:13.810Z,100.00
2023-10-03T17:19:45.324Z,100.00
2023-10-03T17:22:17.161Z,100.00
2023-10-03T17:24:48.686Z,100.00
2023-10-03T17:27:20.530Z,100.00
2023-10-03T17:29:52.055Z,100.00
2023-10-03T17:32:23.887Z,100.00
2023-10-03T17:34:55.387Z,100.00
2023-10-03T17:37:27.209Z,100.00
2023-10-03T17:39:58.764Z,100.00
2023-10-03T17:42:30.518Z,100.00
2023-10-03T17:45:02.058Z,100.00
2023-10-03T17:47:33.899Z,100.00
2023-10-03T17:50:05.433Z,100.00
2023-10-03T17:52:37.185Z,100.00
2023-10-03T17:55:08.704Z,100.00
2023-10-03T17:57:40.638Z,100.00
2023-10-03T18:00:12.261Z,100.00
2023-10-03T18:02:44.408Z,100.00
2023-10-03T18:05:16.003Z,100.00
2023-10-03T18:07:47.831Z,100.00
2023-10-03T18:10:19.343Z,100.00
2023-10-03T18:12:51.247Z,100.00
2023-10-03T18:15:22.866Z,100.00
2023-10-03T18:17:54.776Z,100.00
2023-10-03T18:20:26.422Z,100.00
2023-10-03T18:22:58.397Z,100.00
2023-10-03T18:25:29.903Z,100.00
2023-10-03T18:28:01.661Z,100.00
2023-10-03T18:30:33.220Z,100.00
2023-10-03T18:33:05.247Z,100.00
2023-10-03T18:35:36.790Z,100.00
2023-10-03T18:38:08.586Z,100.00
2023-10-03T18:40:40.086Z,100.00
2023-10-03T18:43:12.057Z,100.00
2023-10-03T18:45:55.423Z,100.00
2023-10-03T18:48:29.504Z,100.00
2023-10-03T18:51:01.127Z,100.00
2023-10-03T18:53:32.982Z,100.00
2023-10-03T18:56:04.491Z,100.00
2023-10-03T18:58:36.234Z,100.00
2023-10-03T19:01:07.791Z,99.65
2023-10-03T19:03:39.855Z,99.86
2023-10-03T19:06:11.614Z,98.04
2023-10-03T19:08:43.479Z,98.15
2023-10-03T19:11:15.013Z,97.62
2023-10-03T19:13:46.794Z,97.87
2023-10-03T19:16:18.359Z,98.96
2023-10-03T19:18:50.247Z,97.58
2023-10-03T19:21:21.776Z,98.49
2023-10-03T19:23:53.734Z,96.88
2023-10-03T19:26:25.257Z,96.75
2023-10-03T19:28:57.204Z,95.65
2023-10-03T19:31:28.725Z,97.12
2023-10-03T19:34:00.554Z,94.76
2023-10-03T19:36:32.485Z,94.63
2023-10-03T19:39:04.214Z,94.35
2023-10-03T19:41:35.907Z,94.47
2023-10-03T19:44:07.400Z,93.95
2023-10-03T19:46:39.187Z,94.98
2023-10-03T19:49:11.054Z,95.45
2023-10-03T19:51:42.886Z,95.20
2023-10-03T19:54:14.870Z,94.99
2023-10-03T19:56:46.425Z,95.52
2023-10-03T19:59:18.066Z,95.19
2023-10-03T20:01:49.743Z,96.02
2023-10-03T20:04:21.792Z,94.90
2023-10-03T20:06:53.288Z,94.68
2023-10-03T20:09:25.185Z,94.63
2023-10-03T20:11:56.829Z,94.72
2023-10-03T20:14:28.884Z,94.27
2023-10-03T20:17:00.394Z,94.34
2023-10-03T20:19:31.899Z,93.98
2023-10-03T20:22:03.789Z,93.22
2023-10-03T20:24:35.295Z,92.49
2023-10-03T20:27:07.295Z,92.02
2023-10-03T20:29:38.806Z,93.06
2023-10-03T20:32:10.692Z,93.40
2023-10-03T20:34:42.200Z,92.25
2023-10-03T20:37:14.064Z,91.69
2023-10-03T20:39:45.584Z,91.52
2023-10-03T20:42:17.436Z,92.36
2023-10-03T20:44:48.958Z,92.36
2023-10-03T20:47:20.869Z,92.61
2023-10-03T20:49:52.353Z,92.73
2023-10-03T20:52:24.189Z,93.16
2023-10-03T20:54:56.260Z,93.58
2023-10-03T20:57:27.846Z,93.18
2023-10-03T20:59:59.694Z,93.57
2023-10-03T21:02:31.251Z,94.01
2023-10-03T21:05:03.082Z,94.12
2023-10-03T21:07:34.610Z,93.97
2023-10-03T21:10:06.320Z,93.33
2023-10-03T21:12:37.835Z,93.64
2023-10-03T21:15:09.405Z,93.42
2023-10-03T21:17:40.978Z,93.31
2023-10-03T21:20:12.855Z,92.88
2023-10-03T21:22:44.560Z,92.89
2023-10-03T21:25:16.324Z,93.32
2023-10-03T21:27:47.871Z,92.90
2023-10-03T21:30:19.419Z,92.96
2023-10-03T21:32:51.114Z,93.43
2023-10-03T21:35:22.660Z,93.04
2023-10-03T21:37:54.647Z,92.11
2023-10-03T21:40:26.152Z,92.07
2023-10-03T21:42:58.065Z,92.60
2023-10-03T21:45:29.668Z,92.14
2023-10-03T21:48:01.798Z,92.14
2023-10-03T21:50:33.354Z,92.01
2023-10-03T21:53:05.184Z,92.50
2023-10-03T21:55:37.090Z,92.43
2023-10-03T21:58:08.599Z,92.52
2023-10-03T22:00:40.675Z,92.32
2023-10-03T22:03:12.276Z,92.01
2023-10-03T22:05:44.331Z,92.23
2023-10-03T22:08:16.032Z,92.40
2023-10-03T22:10:47.548Z,92.46
2023-10-03T22:13:19.071Z,92.58
2023-10-03T22:15:50.888Z,92.92
2023-10-03T22:18:22.478Z,93.39
2023-10-03T22:20:54.534Z,93.42
2023-10-03T22:23:26.476Z,94.00
2023-10-03T22:25:57.990Z,94.36
2023-10-03T22:28:29.857Z,94.42
2023-10-03T22:31:01.379Z,94.47
2023-10-03T22:33:33.078Z,95.21
2023-10-03T22:36:04.628Z,94.89
2023-10-03T22:38:36.158Z,95.43
2023-10-03T22:41:07.646Z,95.76
2023-10-03T22:43:39.557Z,96.34
2023-10-03T22:46:11.077Z,96.46
2023-10-03T22:48:42.935Z,96.69
2023-10-03T22:51:14.465Z,96.78
2023-10-03T22:53:46.035Z,96.70
2023-10-03T22:56:17.875Z,96.14
2023-10-03T22:58:49.372Z,96.25
2023-10-03T23:01:21.219Z,95.81
2023-10-03T23:03:52.797Z,95.52
2023-10-03T23:06:24.680Z,95.11
2023-10-03T23:08:56.281Z,94.73
2023-10-03T23:11:28.014Z,94.92
2023-10-03T23:13:59.510Z,94.44
2023-10-03T23:16:31.425Z,94.63
2023-10-03T23:19:03.784Z,93.93
2023-10-03T23:21:36.020Z,93.90
2023-10-03T23:24:07.860Z,93.13
2023-10-03T23:26:39.393Z,92.61
2023-10-03T23:29:11.235Z,92.24
2023-10-03T23:31:42.820Z,91.66
2023-10-03T23:34:14.696Z,90.73
2023-10-03T23:36:46.202Z,90.18
2023-10-03T23:39:17.964Z,90.20
2023-10-03T23:41:49.475Z,90.30
2023-10-03T23:44:21.327Z,89.82
2023-10-03T23:46:52.881Z,89.80
2023-10-03T23:49:24.704Z,89.76
2023-10-03T23:51:56.706Z,89.22
2023-10-03T23:54:28.236Z,88.90
2023-10-03T23:57:00.112Z,88.64
2023-10-03T23:59:31.638Z,88.80
